Pagosa Springs, CO

8:20 AM MDT on September 19, 2017 (GMT -0600)
Pagosa Springs

Weather History for KPSO - April, 2014

Change the Weather History Date:

Monday, April 7, 2014

  Actual Average (KE33) Record (KE33)
Temperature  
Mean Temperature 40 °F -  
Max Temperature 53 °F 47 °F 64 °F (2005)
Min Temperature 27 °F 29 °F 19 °F (1997)
Degree Days  
Heating Degree Days 25    
Moisture  
Dew Point 9 °F    
Average Humidity 32    
Maximum Humidity 66    
Minimum Humidity 10    
Precipitation  
Precipitation 0.00 in - - ()
Sea Level Pressure  
Sea Level Pressure 30.17 in    
Wind  
Wind Speed 4 mph (NNW)    
Max Wind Speed 21 mph    
Max Gust Speed 30 mph    
Visibility 10 miles    
Events      
Averages and records for this station are not official NWS values.
T = Trace of Precipitation, MM = Missing Value Source: NWS Daily Summary

Daily Weather History Graph

Daily Weather History Graph

Search for Another Location

Airport or City:

Trip Planner

Search our weather history database for the weather conditions in past years. The results will help you decide how hot, cold, wet, or windy it might be!

Date:

Astronomy

Apr. 07, 2014 Rise Set
Actual Time 6:44 AM MDT 7:36 PM MDT
Civil Twilight 6:18 AM MDT 8:02 PM MDT
Nautical Twilight 5:47 AM MDT 8:34 PM MDT
Astronomical Twilight 5:14 AM MDT 9:06 PM MDT
Moon 12:46 PM MDT (4/7) 2:11 AM MDT (4/7)
Length of Visible Light 13h 44m
Length of Day
12h 51m
First Quarter, 54% of the Moon is Illuminated
Apr 7
First Quarter
Apr 15
Full
Apr 22
Last Quarter
Apr 29
New
May 6
First Quarter

Hourly Weather History & Observations

Time (MDT) Temp. Windchill Dew Point Humidity Pressure Visibility Wind Dir Wind Speed Gust Speed Precip Events Conditions
12:15 AM 31.3 °F - 12.6 °F 46% 30.04 in 10.0 mi Calm Calm - N/A   Clear
12:35 AM 29.8 °F - 12.4 °F 48% 30.04 in 10.0 mi Calm Calm - N/A   Clear
12:55 AM 28.2 °F 24.4 °F 12.9 °F 53% 30.04 in 10.0 mi North 3.5 mph - N/A   Scattered Clouds
1:15 AM 32.0 °F - 12.4 °F 44% 30.05 in 10.0 mi Calm Calm - N/A   Overcast
1:55 AM 34.2 °F 28.2 °F 13.3 °F 42% 30.06 in 10.0 mi NW 6.9 mph - N/A   Mostly Cloudy
2:15 AM 34.3 °F 29.2 °F 14.5 °F 44% 30.06 in 10.0 mi NNW 5.8 mph - N/A   Scattered Clouds
2:35 AM 33.1 °F 28.7 °F 18.0 °F 54% 30.05 in 10.0 mi North 4.6 mph - N/A   Clear
2:55 AM 33.8 °F 29.6 °F 18.5 °F 54% 30.05 in 10.0 mi NNW 4.6 mph - N/A   Clear
3:15 AM 32.5 °F - 17.4 °F 54% 30.05 in 10.0 mi Calm Calm - N/A   Clear
3:35 AM 29.1 °F - 17.6 °F 62% 30.06 in 10.0 mi Calm Calm - N/A   Clear
3:55 AM 27.7 °F - 17.8 °F 66% 30.06 in 10.0 mi Calm Calm - N/A   Clear
4:15 AM 29.3 °F - 17.6 °F 62% 30.07 in 10.0 mi Calm Calm - N/A   Clear
4:35 AM 31.3 °F - 14.7 °F 50% 30.07 in 10.0 mi Calm Calm - N/A   Clear
4:55 AM 28.8 °F - 16.7 °F 61% 30.08 in 10.0 mi Calm Calm - N/A   Clear
5:15 AM 28.8 °F - 14.2 °F 55% 30.09 in 10.0 mi Calm Calm - N/A   Clear
5:35 AM 28.2 °F - 14.9 °F 57% 30.09 in 10.0 mi Calm Calm - N/A   Clear
5:55 AM 27.3 °F - 15.8 °F 62% 30.09 in 10.0 mi Calm Calm - N/A   Clear
6:15 AM 30.7 °F - 14.9 °F 52% 30.11 in 10.0 mi Calm Calm - N/A   Clear
6:35 AM 31.1 °F 27.7 °F 15.4 °F 52% 30.12 in 10.0 mi NNW 3.5 mph - N/A   Clear
6:55 AM 31.3 °F 26.6 °F 14.9 °F 51% 30.12 in 10.0 mi WNW 4.6 mph - N/A   Clear
7:15 AM 31.8 °F 26.2 °F 14.9 °F 50% 30.13 in 10.0 mi NW 5.8 mph - N/A   Clear
7:35 AM 32.2 °F 28.9 °F 15.1 °F 49% 30.13 in 10.0 mi SE 3.5 mph - N/A   Clear
7:55 AM 33.4 °F 30.4 °F 15.4 °F 48% 30.14 in 10.0 mi South 3.5 mph - N/A   Clear
8:15 AM 34.7 °F - 14.4 °F 43% 30.15 in 10.0 mi Calm Calm - N/A   Clear
8:35 AM 37.0 °F - 13.8 °F 39% 30.15 in 10.0 mi Calm Calm - N/A   Clear
8:55 AM 37.4 °F - 12.9 °F 37% 30.15 in 10.0 mi Calm Calm - N/A   Clear
9:15 AM 39.0 °F - 11.1 °F 32% 30.16 in 10.0 mi Calm Calm - N/A   Clear
9:35 AM 41.5 °F 36.4 °F 10.0 °F 28% 30.16 in 10.0 mi NNW 8.1 mph 17.3 mph N/A   Clear
9:55 AM 43.2 °F 39.7 °F 8.1 °F 24% 30.17 in 10.0 mi NNW 5.8 mph 18.4 mph N/A   Clear
10:15 AM 43.9 °F 37.5 °F 6.3 °F 21% 30.18 in 10.0 mi NNW 12.7 mph 18.4 mph N/A   Clear
10:35 AM 45.0 °F 38.9 °F 4.6 °F 19% 30.19 in 10.0 mi North 12.7 mph 24.2 mph N/A   Clear
10:55 AM 45.9 °F 42.3 °F 4.1 °F 18% 30.19 in 10.0 mi NW 6.9 mph 24.2 mph N/A   Clear
11:15 AM 47.3 °F - 2.1 °F 16% 30.18 in 10.0 mi NW 16.1 mph 29.9 mph N/A   Clear
11:35 AM 47.3 °F - -0.6 °F 14% 30.17 in 10.0 mi NNW 11.5 mph 26.5 mph N/A   Clear
11:55 AM 48.4 °F - -0.8 °F 13% 30.17 in 10.0 mi North 12.7 mph 26.5 mph N/A   Clear
12:15 PM 48.6 °F - -3.1 °F 12% 30.17 in 10.0 mi NW 20.7 mph 28.8 mph N/A   Clear
12:35 PM 50.0 °F - -3.8 °F 11% 30.17 in 10.0 mi North 15.0 mph 25.3 mph N/A   Clear
12:55 PM 51.1 °F - -1.8 °F 11% 30.17 in 10.0 mi North 13.8 mph 24.2 mph N/A   Clear
1:15 PM 50.9 °F - -3.1 °F 11% 30.17 in 10.0 mi North 11.5 mph 27.6 mph N/A   Clear
1:35 PM 51.4 °F - -4.0 °F 10% 30.17 in 10.0 mi NNW 15.0 mph 26.5 mph N/A   Clear
2:15 PM 52.7 °F - 0.9 °F 12% 30.17 in 10.0 mi North 9.2 mph 18.4 mph N/A   Clear
2:35 PM 53.1 °F - 0.1 °F 12% 30.17 in 10.0 mi NNW 10.4 mph 20.7 mph N/A   Clear
2:55 PM 52.9 °F - 0.3 °F 12% 30.17 in 10.0 mi NNE 12.7 mph 20.7 mph N/A   Clear
3:15 PM 52.3 °F - -0.2 °F 12% 30.17 in 10.0 mi North 17.3 mph 23.0 mph N/A   Clear
3:35 PM 53.1 °F - 0.5 °F 12% 30.17 in 10.0 mi North 10.4 mph 19.6 mph N/A   Clear
3:55 PM 53.4 °F - 2.7 °F 13% 30.17 in 10.0 mi NNW 5.8 mph 20.7 mph N/A   Clear
4:15 PM 53.8 °F - 3.6 °F 13% 30.17 in 10.0 mi NNE 5.8 mph - N/A   Clear
4:35 PM 53.1 °F - 1.9 °F 12% 30.17 in 10.0 mi North 9.2 mph - N/A   Clear
4:55 PM 53.1 °F - 3.9 °F 14% 30.18 in 10.0 mi Calm Calm - N/A   Clear
5:15 PM 52.9 °F - 3.2 °F 13% 30.19 in 10.0 mi NW 10.4 mph 17.3 mph N/A   Clear
5:35 PM 52.7 °F - 1.9 °F 13% 30.19 in 10.0 mi NW 6.9 mph 16.1 mph N/A   Clear
5:55 PM 52.2 °F - 3.7 °F 14% 30.19 in 10.0 mi NNW 9.2 mph - N/A   Clear
6:15 PM 51.6 °F - 5.2 °F 15% 30.20 in 10.0 mi NW 10.4 mph 18.4 mph N/A   Clear
6:35 PM 50.9 °F - 4.6 °F 15% 30.21 in 10.0 mi WNW 10.4 mph 19.6 mph N/A   Clear
6:55 PM 50.2 °F - 5.5 °F 16% 30.22 in 10.0 mi NNE 6.9 mph 21.9 mph N/A   Clear
7:15 PM 48.7 °F - 7.3 °F 19% 30.23 in 10.0 mi NNE 5.8 mph - N/A   Clear
7:35 PM 47.8 °F - 7.0 °F 19% 30.24 in 10.0 mi NW 3.5 mph - N/A   Clear
7:55 PM 45.7 °F 44.4 °F 9.1 °F 23% 30.24 in 10.0 mi West 3.5 mph - N/A   Clear
8:15 PM 43.7 °F 41.1 °F 9.9 °F 25% 30.25 in 10.0 mi SSW 4.6 mph - N/A   Clear
8:35 PM 43.9 °F 41.3 °F 9.1 °F 24% 30.26 in 10.0 mi SSW 4.6 mph - N/A   Clear
8:55 PM 40.1 °F - 12.0 °F 32% 30.27 in 10.0 mi Calm Calm - N/A   Clear
9:15 PM 36.1 °F - 13.3 °F 39% 30.27 in 10.0 mi Calm Calm - N/A   Clear
9:35 PM 37.9 °F - 11.8 °F 34% 30.29 in 10.0 mi Calm Calm - N/A   Clear
9:55 PM 36.0 °F 33.3 °F 12.9 °F 39% 30.30 in 10.0 mi NNW 3.5 mph - N/A   Clear
10:15 PM 35.2 °F - 12.6 °F 39% 30.29 in 10.0 mi Calm Calm - N/A   Clear
10:35 PM 37.2 °F 34.7 °F 10.8 °F 34% 30.30 in 10.0 mi NNE 3.5 mph - N/A   Clear
10:55 PM 37.6 °F 34.0 °F 12.0 °F 35% 30.30 in 10.0 mi West 4.6 mph - N/A   Clear
11:15 PM 37.2 °F - 11.5 °F 35% 30.31 in 10.0 mi Calm Calm - N/A   Clear
11:35 PM 33.4 °F - 13.5 °F 44% 30.30 in 10.0 mi Calm Calm - N/A   Clear
11:55 PM 32.5 °F - 12.9 °F 44% 30.31 in 10.0 mi Calm Calm - N/A   Clear